Taiko Maru — JI3683 — position and weather

sailwx.info

Track history (hours):
 
Tides and Currents Weather Stations Pressure Air Temp Water Temp Dewpoint Dewpoint Depression Visibility Wind Speed Wind Dir Waves Ship Positions

Taiko Maru

Last reported at 2017-Nov-17 12:04 UTC. Time now 2017-Nov-24 00:24 UTC.
Position N 34°52' E 139°17'.

Length 118 m; draft 5.1 m.

Type: Cargo ship. MMSI: 431301547.

Date/timePositionNaut miles runAvg speedWind from/ knotsBaromVisibWave heightAir tempDewpointWater temp
2017-Nov-17 12:04N 34°52' E 139°17'412.7
2017-Nov-17 11:47N 34°54' E 139°20'412.7
2017-Nov-17 11:30N 34°56' E 139°24'712.9
2017-Nov-17 11:00N 34°60' E 139°30'713.2
2017-Nov-17 10:30N 35°03' E 139°37'713.3
2017-Nov-17 10:00N 35°08' E 139°43'713.3
2017-Nov-17 09:30N 35°14' E 139°46'612.9
2017-Nov-17 09:00N 35°19' E 139°43'612.0
2017-Nov-17 08:30N 35°25' E 139°44'612.6
2017-Nov-17 08:00N 35°30' E 139°49'5 9.8
2017-Nov-17 07:30N 35°35' E 139°47'3 4.3
2017-Nov-17 06:43N 35°38' E 139°46'0 0.2
2017-Nov-17 06:28N 35°38' E 139°45'0 0.0
2017-Nov-17 02:54N 35°38' E 139°46'0 0.0
2017-Nov-17 02:21N 35°38' E 139°46'0 0.1
2017-Nov-17 01:50N 35°38' E 139°45'1 2.3
2017-Nov-17 01:31N 35°37' E 139°46'611.3
2017-Nov-17 01:01N 35°33' E 139°51'5 9.6
2017-Nov-17 00:30N 35°28' E 139°51'611.8
2017-Nov-17 00:01N 35°24' E 139°46'611.7
2017-Nov-16 23:31N 35°19' E 139°44'611.0
2017-Nov-16 23:00N 35°14' E 139°47'612.0
2017-Nov-16 22:30N 35°08' E 139°45'713.1
2017-Nov-16 21:59N 35°01' E 139°43'611.3
2017-Nov-16 21:30N 34°56' E 139°43'  
Track history (hours):
 
Tides and Currents Weather Stations Pressure Air Temp Water Temp Dewpoint Dewpoint Depression Visibility Wind Speed Wind Dir Waves Ship Positions

Taiko Maru

Last reported at 2017-Nov-17 12:04 UTC. Time now 2017-Nov-24 00:24 UTC.
Position N 34°52' E 139°17'.

Length 118 m; draft 5.1 m.

Type: Cargo ship. MMSI: 431301547.

Date/timePositionNaut miles runAvg speedWind from/ knotsBaromVisibWave heightAir tempDewpointWater temp
2017-Nov-17 12:04N 34°52' E 139°17'412.7
2017-Nov-17 11:47N 34°54' E 139°20'412.7
2017-Nov-17 11:30N 34°56' E 139°24'712.9
2017-Nov-17 11:00N 34°60' E 139°30'713.2
2017-Nov-17 10:30N 35°03' E 139°37'713.3
2017-Nov-17 10:00N 35°08' E 139°43'713.3
2017-Nov-17 09:30N 35°14' E 139°46'612.9
2017-Nov-17 09:00N 35°19' E 139°43'612.0
2017-Nov-17 08:30N 35°25' E 139°44'612.6
2017-Nov-17 08:00N 35°30' E 139°49'5 9.8
2017-Nov-17 07:30N 35°35' E 139°47'3 4.3
2017-Nov-17 06:43N 35°38' E 139°46'0 0.2
2017-Nov-17 06:28N 35°38' E 139°45'0 0.0
2017-Nov-17 02:54N 35°38' E 139°46'0 0.0
2017-Nov-17 02:21N 35°38' E 139°46'0 0.1
2017-Nov-17 01:50N 35°38' E 139°45'1 2.3
2017-Nov-17 01:31N 35°37' E 139°46'611.3
2017-Nov-17 01:01N 35°33' E 139°51'5 9.6
2017-Nov-17 00:30N 35°28' E 139°51'611.8
2017-Nov-17 00:01N 35°24' E 139°46'611.7
2017-Nov-16 23:31N 35°19' E 139°44'611.0
2017-Nov-16 23:00N 35°14' E 139°47'612.0
2017-Nov-16 22:30N 35°08' E 139°45'713.1
2017-Nov-16 21:59N 35°01' E 139°43'611.3
2017-Nov-16 21:30N 34°56' E 139°43'  

Dump ship's entire track history